createdAt,value
2023-07-18T00:02:57.473Z,16.68
2023-07-18T00:06:00.388Z,16.64
2023-07-18T00:09:05.220Z,16.68
2023-07-18T00:12:09.681Z,16.69
2023-07-18T00:15:14.217Z,16.70
2023-07-18T00:18:16.957Z,16.68
2023-07-18T00:21:19.985Z,16.67
2023-07-18T00:24:22.819Z,16.66
2023-07-18T00:27:25.613Z,16.66
2023-07-18T00:30:29.768Z,16.64
2023-07-18T00:33:32.386Z,16.60
2023-07-18T00:36:35.001Z,16.58
2023-07-18T00:39:37.884Z,16.53
2023-07-18T00:42:40.627Z,16.47
2023-07-18T00:45:45.521Z,16.41
2023-07-18T00:48:48.237Z,16.36
2023-07-18T00:51:50.877Z,16.34
2023-07-18T00:54:53.572Z,16.31
2023-07-18T00:57:56.398Z,16.27
2023-07-18T01:01:01.459Z,16.24
2023-07-18T01:04:04.307Z,16.20
2023-07-18T01:07:07.267Z,16.19
2023-07-18T01:10:17.390Z,16.18
2023-07-18T01:13:20.059Z,16.16
2023-07-18T01:16:24.084Z,16.16
2023-07-18T01:19:26.840Z,16.13
2023-07-18T01:22:30.794Z,16.07
2023-07-18T01:25:34.618Z,16.03
2023-07-18T01:28:37.266Z,16.00
2023-07-18T01:31:39.957Z,15.97
2023-07-18T01:34:42.989Z,15.95
2023-07-18T01:37:47.641Z,15.92
2023-07-18T01:40:50.345Z,15.90
2023-07-18T01:43:53.193Z,15.87
2023-07-18T01:46:55.973Z,15.84
2023-07-18T01:49:58.570Z,15.79
2023-07-18T01:53:02.717Z,15.73
2023-07-18T01:56:05.685Z,15.67
2023-07-18T01:59:08.328Z,15.64
2023-07-18T02:02:11.050Z,15.63
2023-07-18T02:05:14.901Z,15.59
2023-07-18T02:08:18.922Z,15.55
2023-07-18T02:11:21.744Z,15.51
2023-07-18T02:14:24.722Z,15.47
2023-07-18T02:17:27.389Z,15.45
2023-07-18T02:20:30.099Z,15.46
2023-07-18T02:23:34.164Z,15.46
2023-07-18T02:26:36.824Z,15.42
2023-07-18T02:29:39.507Z,15.40
2023-07-18T02:32:42.420Z,15.37
2023-07-18T02:35:49.559Z,15.34
2023-07-18T02:38:53.747Z,15.33
2023-07-18T02:41:56.466Z,15.30
2023-07-18T02:44:59.212Z,15.29
2023-07-18T02:48:01.959Z,15.25
2023-07-18T02:51:04.795Z,15.21
2023-07-18T02:54:08.801Z,15.16
2023-07-18T02:57:11.394Z,15.11
2023-07-18T03:00:21.333Z,15.07
2023-07-18T03:03:24.506Z,15.00
2023-07-18T03:06:27.176Z,14.93
2023-07-18T03:09:34.854Z,14.86
2023-07-18T03:12:37.428Z,14.82
2023-07-18T03:15:40.698Z,14.80
2023-07-18T03:18:43.344Z,14.78
2023-07-18T03:21:46.023Z,14.75
2023-07-18T03:24:49.979Z,14.71
2023-07-18T03:27:53.153Z,14.67
2023-07-18T03:30:55.857Z,14.62
2023-07-18T03:33:58.566Z,14.62
2023-07-18T03:37:01.212Z,14.62
2023-07-18T03:40:07.417Z,14.61
2023-07-18T03:43:10.041Z,14.61
2023-07-18T03:46:12.717Z,14.60
2023-07-18T03:49:15.363Z,14.63
2023-07-18T03:52:18.010Z,14.65
2023-07-18T03:55:22.189Z,14.67
2023-07-18T03:58:24.832Z,14.65
2023-07-18T04:01:27.452Z,14.64
2023-07-18T04:04:31.926Z,14.61
2023-07-18T04:07:34.613Z,14.57
2023-07-18T04:10:38.820Z,14.52
2023-07-18T04:13:41.395Z,14.48
2023-07-18T04:16:44.029Z,14.44
2023-07-18T04:19:46.734Z,14.39
2023-07-18T04:22:49.640Z,14.37
2023-07-18T04:25:57.819Z,14.42
2023-07-18T04:29:00.548Z,14.48
2023-07-18T04:32:03.269Z,14.57
2023-07-18T04:35:07.164Z,14.68
2023-07-18T04:38:10.523Z,14.79
2023-07-18T04:41:14.523Z,14.89
2023-07-18T04:44:17.123Z,14.98
2023-07-18T04:47:19.824Z,15.03
2023-07-18T04:50:22.557Z,15.09
2023-07-18T04:53:27.662Z,15.14
2023-07-18T04:56:31.669Z,15.23
2023-07-18T04:59:35.692Z,15.30
2023-07-18T05:02:39.231Z,15.33
2023-07-18T05:05:43.787Z,15.35
2023-07-18T05:08:47.949Z,15.31
2023-07-18T05:11:52.063Z,15.25
2023-07-18T05:14:54.666Z,15.16
2023-07-18T05:17:57.340Z,15.10
2023-07-18T05:21:00.034Z,15.06
2023-07-18T05:24:02.745Z,15.07
2023-07-18T05:27:07.328Z,15.09
2023-07-18T05:30:13.160Z,15.15
2023-07-18T05:33:15.803Z,15.23
2023-07-18T05:36:18.395Z,15.30
2023-07-18T05:39:21.058Z,15.37
2023-07-18T05:42:25.401Z,15.43
2023-07-18T05:45:28.308Z,15.45
2023-07-18T05:48:31.720Z,15.46
2023-07-18T05:51:34.434Z,15.44
2023-07-18T05:54:39.413Z,15.49
2023-07-18T05:57:43.937Z,15.58
2023-07-18T06:00:46.565Z,15.66
2023-07-18T06:03:49.245Z,15.72
2023-07-18T06:06:51.989Z,15.79
2023-07-18T06:09:54.689Z,15.84
2023-07-18T06:12:58.680Z,15.89
2023-07-18T06:16:01.305Z,15.93
2023-07-18T06:19:04.005Z,15.96
2023-07-18T06:22:06.907Z,16.03
2023-07-18T06:25:10.643Z,16.07
2023-07-18T06:28:14.634Z,16.12
2023-07-18T06:31:17.483Z,16.16
2023-07-18T06:34:20.498Z,16.22
2023-07-18T06:37:23.200Z,16.28
2023-07-18T06:40:25.864Z,16.31
2023-07-18T06:43:29.864Z,16.34
2023-07-18T06:46:32.490Z,16.36
2023-07-18T06:49:35.214Z,16.37
2023-07-18T06:52:37.868Z,16.36
2023-07-18T06:55:42.197Z,16.32
2023-07-18T06:58:46.164Z,16.32
2023-07-18T07:01:48.772Z,16.33
2023-07-18T07:04:51.456Z,16.36
2023-07-18T07:07:54.724Z,16.45
2023-07-18T07:11:04.961Z,16.52
2023-07-18T07:14:09.072Z,16.54
2023-07-18T07:17:11.746Z,16.59
2023-07-18T07:20:15.038Z,16.60
2023-07-18T07:23:17.921Z,16.59
2023-07-18T07:26:20.802Z,16.62
2023-07-18T07:29:24.862Z,16.65
2023-07-18T07:32:28.093Z,16.70
2023-07-18T07:35:31.085Z,16.72
2023-07-18T07:38:33.773Z,16.68
2023-07-18T07:41:36.423Z,16.66
2023-07-18T07:44:40.341Z,16.76
2023-07-18T07:47:43.018Z,16.80
2023-07-18T07:50:45.708Z,16.80
2023-07-18T07:53:48.335Z,16.84
2023-07-18T07:56:51.114Z,17.02
2023-07-18T07:59:55.132Z,17.11
2023-07-18T08:02:57.724Z,17.17
2023-07-18T08:06:01.534Z,17.22
2023-07-18T08:09:04.457Z,17.30
2023-07-18T08:12:08.480Z,17.45
2023-07-18T08:15:12.602Z,17.57
2023-07-18T08:18:15.160Z,17.64
2023-07-18T08:21:20.115Z,17.71
2023-07-18T08:24:23.314Z,17.89
2023-07-18T08:27:25.902Z,18.00
2023-07-18T08:30:29.936Z,18.06
2023-07-18T08:33:32.652Z,18.10
2023-07-18T08:36:36.831Z,18.22
2023-07-18T08:39:39.477Z,18.40
2023-07-18T08:42:42.231Z,18.60
2023-07-18T08:45:46.286Z,18.71
2023-07-18T08:48:49.439Z,18.70
2023-07-18T08:51:53.520Z,18.68
2023-07-18T08:54:56.129Z,18.72
2023-07-18T08:57:58.857Z,18.83
2023-07-18T09:01:02.857Z,18.99
2023-07-18T09:04:05.854Z,19.12
2023-07-18T09:07:09.171Z,19.22
2023-07-18T09:10:11.870Z,19.32
2023-07-18T09:13:14.489Z,19.42
2023-07-18T09:16:19.289Z,19.55
2023-07-18T09:19:22.013Z,19.71
2023-07-18T09:22:25.389Z,19.81
2023-07-18T09:25:28.761Z,19.85
2023-07-18T09:28:33.700Z,19.88
2023-07-18T09:31:38.052Z,20.00
2023-07-18T09:34:40.750Z,20.10
2023-07-18T09:37:46.646Z,20.26
2023-07-18T09:40:50.760Z,20.37
2023-07-18T09:44:05.993Z,20.55
2023-07-18T09:47:17.677Z,20.66
2023-07-18T09:50:20.396Z,20.66
2023-07-18T09:53:23.137Z,20.67
2023-07-18T09:56:26.252Z,20.68
2023-07-18T09:59:29.350Z,20.70
2023-07-18T10:02:33.751Z,20.77
2023-07-18T10:05:36.473Z,20.89
2023-07-18T10:08:39.279Z,20.96
2023-07-18T10:12:09.634Z,21.07
2023-07-18T10:15:12.402Z,21.15
2023-07-18T10:18:19.651Z,21.16
2023-07-18T10:21:29.636Z,21.14
2023-07-18T10:24:33.276Z,21.22
2023-07-18T10:27:39.935Z,21.33
2023-07-18T10:30:43.800Z,21.44
2023-07-18T10:34:12.285Z,21.61
2023-07-18T10:37:15.478Z,21.82
2023-07-18T10:40:32.658Z,22.06
2023-07-18T10:43:35.451Z,22.08
2023-07-18T10:46:39.410Z,22.08
2023-07-18T10:49:43.797Z,22.23
2023-07-18T10:52:46.490Z,22.39
2023-07-18T10:55:49.427Z,22.43
2023-07-18T10:58:53.318Z,22.42
2023-07-18T11:01:56.218Z,22.47
2023-07-18T11:05:00.371Z,22.64
2023-07-18T11:08:03.380Z,22.68
2023-07-18T11:11:06.557Z,22.69
2023-07-18T11:14:09.270Z,22.74
2023-07-18T11:17:13.856Z,22.78
2023-07-18T11:20:17.988Z,22.85
2023-07-18T11:23:21.209Z,23.10
2023-07-18T11:26:23.836Z,23.33
2023-07-18T11:29:27.656Z,23.42
2023-07-18T11:32:34.698Z,23.41
2023-07-18T11:35:38.652Z,23.35
2023-07-18T11:38:41.605Z,23.50
2023-07-18T11:41:45.044Z,23.56
2023-07-18T11:44:48.930Z,23.56
2023-07-18T11:47:53.439Z,23.46
2023-07-18T11:50:57.541Z,23.44
2023-07-18T11:54:00.216Z,23.57
2023-07-18T11:57:03.771Z,23.66
2023-07-18T12:00:09.616Z,23.73
2023-07-18T12:03:12.743Z,23.81
2023-07-18T12:06:17.305Z,23.84
2023-07-18T12:09:20.040Z,23.92
2023-07-18T12:12:22.697Z,23.93
2023-07-18T12:15:25.562Z,24.05
2023-07-18T12:18:28.231Z,24.25
2023-07-18T12:21:32.297Z,24.43
2023-07-18T12:24:34.978Z,24.49
2023-07-18T12:27:38.148Z,24.55
2023-07-18T12:30:40.787Z,24.71
2023-07-18T12:33:43.408Z,24.89
2023-07-18T12:36:47.346Z,24.99
2023-07-18T12:39:49.946Z,25.03
2023-07-18T12:42:52.710Z,24.99
2023-07-18T12:45:56.796Z,24.95
2023-07-18T12:52:07.130Z,24.96
2023-07-18T12:55:10.156Z,25.07
2023-07-18T12:58:12.828Z,25.26
2023-07-18T13:01:15.757Z,25.38
2023-07-18T13:04:18.371Z,25.42
2023-07-18T13:07:22.594Z,25.48
2023-07-18T13:10:25.228Z,25.56
2023-07-18T13:13:27.821Z,25.63
2023-07-18T13:16:30.491Z,25.70
2023-07-18T13:19:33.178Z,25.85
2023-07-18T13:22:37.202Z,25.90
2023-07-18T13:25:39.843Z,25.87
2023-07-18T13:28:42.641Z,25.79
2023-07-18T13:31:45.426Z,25.70
2023-07-18T13:34:48.426Z,25.70
2023-07-18T13:37:52.447Z,25.74
2023-07-18T13:40:55.172Z,25.81
2023-07-18T13:43:58.597Z,25.89
2023-07-18T13:47:01.373Z,25.88
2023-07-18T13:53:20.871Z,25.79
2023-07-18T13:56:23.742Z,25.79
2023-07-18T13:59:26.963Z,25.84
2023-07-18T14:02:29.631Z,25.90
2023-07-18T14:05:32.328Z,25.98
2023-07-18T14:08:36.380Z,26.02
2023-07-18T14:11:39.030Z,26.01
2023-07-18T14:14:41.707Z,25.99
2023-07-18T14:17:44.339Z,25.98
2023-07-18T14:20:48.180Z,26.02
2023-07-18T14:23:52.423Z,26.07
2023-07-18T14:26:55.153Z,26.06
2023-07-18T14:29:57.833Z,26.04
2023-07-18T14:33:01.049Z,26.08
2023-07-18T14:36:05.504Z,26.10
2023-07-18T14:39:10.085Z,26.06
2023-07-18T14:42:12.745Z,26.02
2023-07-18T14:45:15.362Z,26.00
2023-07-18T14:48:18.020Z,25.97
2023-07-18T14:51:21.357Z,25.94
2023-07-18T14:54:25.338Z,25.93
2023-07-18T14:57:28.016Z,25.89
2023-07-18T15:00:30.720Z,25.85
2023-07-18T15:03:33.503Z,25.83
2023-07-18T15:06:36.216Z,25.80
2023-07-18T15:09:40.264Z,25.82
2023-07-18T15:12:45.544Z,25.83
2023-07-18T15:15:48.170Z,25.81
2023-07-18T15:18:51.553Z,25.79
2023-07-18T15:21:54.700Z,25.74
2023-07-18T15:24:58.675Z,25.70
2023-07-18T15:28:01.515Z,25.65
2023-07-18T15:31:04.321Z,25.62
2023-07-18T15:34:07.066Z,25.48
2023-07-18T15:37:09.704Z,25.36
2023-07-18T15:40:14.073Z,25.29
2023-07-18T15:43:16.688Z,25.28
2023-07-18T15:46:19.576Z,25.24
2023-07-18T15:49:22.523Z,25.24
2023-07-18T15:52:27.669Z,25.22
2023-07-18T15:55:31.749Z,25.17
2023-07-18T15:58:34.563Z,25.11
2023-07-18T16:01:37.721Z,25.06
2023-07-18T16:04:40.461Z,25.03
2023-07-18T16:07:43.132Z,25.01
2023-07-18T16:10:47.105Z,24.98
2023-07-18T16:13:49.902Z,24.96
2023-07-18T16:16:52.778Z,24.84
2023-07-18T16:19:57.145Z,24.82
2023-07-18T16:22:59.922Z,24.82
2023-07-18T16:26:03.957Z,24.83
2023-07-18T16:29:06.654Z,24.83
2023-07-18T16:32:09.446Z,24.75
2023-07-18T16:35:12.171Z,24.62
2023-07-18T16:38:14.733Z,24.57
2023-07-18T16:41:18.983Z,24.54
2023-07-18T16:44:22.033Z,24.48
2023-07-18T16:47:24.770Z,24.46
2023-07-18T16:50:27.544Z,24.41
2023-07-18T16:53:30.308Z,24.41
2023-07-18T16:56:36.580Z,24.41
2023-07-18T16:59:39.389Z,24.40
2023-07-18T17:02:42.636Z,24.42
2023-07-18T17:05:45.320Z,24.41
2023-07-18T17:08:47.997Z,24.39
2023-07-18T17:11:51.955Z,24.33
2023-07-18T17:14:56.133Z,24.27
2023-07-18T17:17:58.903Z,24.24
2023-07-18T17:21:01.529Z,24.22
2023-07-18T17:24:05.490Z,24.22
2023-07-18T17:27:09.512Z,24.21
2023-07-18T17:30:12.659Z,24.20
2023-07-18T17:33:15.571Z,24.16
2023-07-18T17:36:18.426Z,24.13
2023-07-18T17:39:21.485Z,24.08
2023-07-18T17:42:26.347Z,24.03
2023-07-18T17:45:29.046Z,23.97
2023-07-18T17:48:31.714Z,23.92
2023-07-18T17:51:34.364Z,23.88
2023-07-18T17:54:37.062Z,23.84
2023-07-18T17:57:41.062Z,23.78
2023-07-18T18:00:45.135Z,23.72
2023-07-18T18:03:47.885Z,23.67
2023-07-18T18:06:50.659Z,23.64
2023-07-18T18:09:53.353Z,23.59
2023-07-18T18:12:57.386Z,23.56
2023-07-18T18:16:08.213Z,23.53
2023-07-18T18:19:11.776Z,23.45
2023-07-18T18:22:14.380Z,23.40
2023-07-18T18:25:17.180Z,23.33
2023-07-18T18:28:22.870Z,23.21
2023-07-18T18:31:25.854Z,23.11
2023-07-18T18:34:29.277Z,22.98
2023-07-18T18:37:31.922Z,22.79
2023-07-18T18:40:34.563Z,22.62
2023-07-18T18:43:38.569Z,22.45
2023-07-18T18:46:41.227Z,22.35
2023-07-18T18:49:44.044Z,22.26
2023-07-18T18:52:46.705Z,22.17
2023-07-18T18:55:49.316Z,22.10
2023-07-18T18:58:53.351Z,22.04
2023-07-18T19:01:56.061Z,21.96
2023-07-18T19:04:58.770Z,21.90
2023-07-18T19:08:01.413Z,21.89
2023-07-18T19:11:07.854Z,21.87
2023-07-18T19:14:12.612Z,21.83
2023-07-18T19:17:15.306Z,21.84
2023-07-18T19:20:18.013Z,21.81
2023-07-18T19:23:20.719Z,21.77
2023-07-18T19:26:23.418Z,21.76
2023-07-18T19:29:27.429Z,21.77
2023-07-18T19:32:30.188Z,21.75
2023-07-18T19:35:32.995Z,21.76
2023-07-18T19:38:36.626Z,21.76
2023-07-18T19:41:40.647Z,21.78
2023-07-18T19:44:46.991Z,21.78
2023-07-18T19:47:51.090Z,21.79
2023-07-18T19:50:53.793Z,21.77
2023-07-18T19:53:57.562Z,21.72
2023-07-18T19:57:00.203Z,21.71
2023-07-18T20:00:07.058Z,21.69
2023-07-18T20:03:09.704Z,21.59
2023-07-18T20:06:12.529Z,21.39
2023-07-18T20:09:15.629Z,21.23
2023-07-18T20:12:18.367Z,21.12
2023-07-18T20:15:22.390Z,21.04
2023-07-18T20:18:25.645Z,21.01
2023-07-18T20:21:28.322Z,20.93
2023-07-18T20:24:30.962Z,20.83
2023-07-18T20:27:38.486Z,20.74
2023-07-18T20:30:42.435Z,20.67
2023-07-18T20:33:45.147Z,20.59
2023-07-18T20:36:49.260Z,20.47
2023-07-18T20:39:51.977Z,20.40
2023-07-18T20:42:54.601Z,20.32
2023-07-18T20:45:59.995Z,20.27
2023-07-18T20:49:03.876Z,20.22
2023-07-18T20:52:08.228Z,20.20
2023-07-18T20:55:10.902Z,20.12
2023-07-18T20:58:13.947Z,20.06
2023-07-18T21:01:18.234Z,20.04
2023-07-18T21:04:21.146Z,20.01
2023-07-18T21:07:23.930Z,20.00
2023-07-18T21:10:26.688Z,20.00
2023-07-18T21:13:29.396Z,19.99
2023-07-18T21:16:34.533Z,20.00
2023-07-18T21:19:37.275Z,19.99
2023-07-18T21:22:40.015Z,19.96
2023-07-18T21:25:43.750Z,19.91
2023-07-18T21:29:02.108Z,19.87
2023-07-18T21:32:09.566Z,19.85
2023-07-18T21:35:12.314Z,19.78
2023-07-18T21:38:15.016Z,19.72
2023-07-18T21:41:20.369Z,19.67
2023-07-18T21:44:23.381Z,19.63
2023-07-18T21:47:27.594Z,19.56
2023-07-18T21:50:30.338Z,19.53
2023-07-18T21:53:33.312Z,19.52
2023-07-18T21:56:35.951Z,19.50
2023-07-18T21:59:38.572Z,19.47
2023-07-18T22:02:42.781Z,19.43
2023-07-18T22:05:45.478Z,19.43
2023-07-18T22:08:48.139Z,19.40
2023-07-18T22:11:51.672Z,19.39
2023-07-18T22:14:54.511Z,19.38
2023-07-18T22:18:08.934Z,19.39
2023-07-18T22:21:14.928Z,19.41
2023-07-18T22:24:18.076Z,19.41
2023-07-18T22:27:20.699Z,19.40
2023-07-18T22:30:23.370Z,19.38
2023-07-18T22:33:27.642Z,19.33
2023-07-18T22:36:30.244Z,19.27
2023-07-18T22:39:36.564Z,19.23
2023-07-18T22:42:40.139Z,19.20
2023-07-18T22:45:43.175Z,19.20
2023-07-18T22:48:47.302Z,19.21
2023-07-18T22:51:49.984Z,19.23
2023-07-18T22:54:52.562Z,19.24
2023-07-18T22:57:55.218Z,19.25
2023-07-18T23:00:57.925Z,19.25
2023-07-18T23:04:02.012Z,19.26
2023-07-18T23:07:05.392Z,19.27
2023-07-18T23:10:09.150Z,19.21
2023-07-18T23:13:12.539Z,19.14
2023-07-18T23:16:16.103Z,19.04
2023-07-18T23:19:20.156Z,18.96
2023-07-18T23:22:22.866Z,18.92
2023-07-18T23:25:26.025Z,18.87
2023-07-18T23:28:28.680Z,18.82
2023-07-18T23:31:31.372Z,18.72
2023-07-18T23:34:35.344Z,18.65
2023-07-18T23:37:38.024Z,18.60
2023-07-18T23:40:40.668Z,18.59
2023-07-18T23:43:43.404Z,18.63
2023-07-18T23:46:46.055Z,18.63
2023-07-18T23:49:50.070Z,18.65
2023-07-18T23:52:52.782Z,18.60
2023-07-18T23:55:56.068Z,18.52
2023-07-18T23:58:58.761Z,18.42
